WEATHER DATA

TODAY
Time Temp. Dewp. Hum. Wind dir Wind speed Wind gust Bar. 1h Prec. 24h Prec.
00:00 12.6 10.3 86 0 0.3 1020.5 0.0000 0.0000
00:10 12.4 10.1 86 90 0.3 0.6 1020.4 0.0000 0.0000
00:20 12.4 10.3 87 0 0.6 1020.4 0.0000 0.0000
00:30 12.3 10.2 87 0 0.6 1020.4 0.0000 0.0000
00:40 12.4 10.5 88 0 0.6 1020.5 0.0000 0.0000
00:50 12.6 10.7 88 0 0.6 1020.2 0.0000 0.0000
01:00 12.7 10.9 89 0 0.6 1020.3 0.0000 0.0000
01:10 12.9 11.1 89 0 0.6 1020.4 0.0000 0.0000
01:20 13.1 11.3 89 0 0.3 1020.3 0.0000 0.0000
01:30 13.2 11.4 89 21 0.3 0.6 1020.1 0.0000 0.0000
01:41 13.4 11.6 89 30 0.3 0.6 1020.2 0.0000 0.0000
01:50 13.6 11.8 89 29 0.3 0.8 1020 0.0000 0.0000
02:00 13.7 11.9 89 26 0.3 0.8 1020.1 0.0000 0.0000
02:10 13.8 12 89 49 0.3 0.8 1020.2 0.0000 0.0000
02:21 13.9 12.1 89 50 0.3 0.8 1020.1 0.0000 0.0000
02:30 14 12.2 89 90 0.3 0.6 1020.1 0.0000 0.0000
02:40 14 12.2 89 90 0.3 0.6 1020 0.0000 0.0000
02:51 13.9 12.1 89 90 0.3 0.6 1019.9 0.0000 0.0000
03:01 13.8 11.8 88 90 0.3 0.6 1019.9 0.0000 0.0000
03:11 13.6 11.7 88 90 0.3 0.6 1019.9 0.0000 0.0000
03:20 13.5 11.6 88 90 0.3 0.6 1019.9 0.0000 0.0000
03:31 13.5 11.7 89 315 0.3 0.8 1019.8 0.0000 0.0000
03:41 13.5 11.7 89 36 0.3 0.6 1019.8 0.0000 0.0000
03:51 13.5 11.7 89 0 0.6 1019.8 0.0000 0.0000
04:01 13.5 11.7 89 0 0.6 1019.6 0.0000 0.0000
04:11 13.4 11.6 89 0 0.6 1019.7 0.0000 0.0000
04:21 13.3 11.5 89 0 0.6 1019.5 0.0000 0.0000
04:31 13.2 11.4 89 0 0.6 1019.4 0.0000 0.0000
04:42 13 11.1 88 0 0.6 1019.4 0.0000 0.0000
04:51 12.7 10.8 88 0 0.6 1019.5 0.0000 0.0000
05:01 12.5 10.6 88 0 0.3 1019.4 0.0000 0.0000
05:12 12.2 10.3 88 0 0.3 1019.4 0.0000 0.0000
05:22 12 10.1 88 0 0.3 1019.5 0.0000 0.0000
05:32 11.8 9.9 88 0 0.3 1019.6 0.0000 0.0000
05:41 11.7 9.9 89 315 0.3 0.6 1019.6 0.0000 0.0000
05:52 11.8 10 89 0 0.3 1019.5 0.0000 0.0000
06:02 11.9 10.3 90 0 0.6 1019.5 0.0000 0.0000
06:12 12.1 10.5 90 0 0.6 1019.6 0.0000 0.0000
06:22 12.2 10.6 90 0 0.6 1019.5 0.0000 0.0000
06:32 12.5 10.9 90 323 0.3 0.6 1019.5 0.0000 0.0000
06:42 12.7 11.3 91 45 0.3 0.6 1019.5 0.0000 0.0000
06:52 13 11.6 91 0 0.6 1019.4 0.0000 0.0000
07:03 13.2 11.8 91 54 0.3 0.8 1019.4 0.0000 0.0000
07:12 13.4 12 91 60 0.3 1.1 1019.2 0.0000 0.0000
07:22 13.7 12.3 91 50 0.6 1.1 1019.2 0.0000 0.0000
07:33 14 12.6 91 59 0.6 1.1 1019.2 0.0000 0.0000
07:43 14.2 12.8 91 45 0.3 1.1 1019.3 0.0000 0.0000
07:52 14.4 12.8 90 21 0.3 1.1 1019.3 0.0000 0.0000
08:02 14.6 13 90 356 0.3 0.8 1019.4 0.0000 0.0000
08:13 14.8 13.2 90 33 0.3 0.8 1019.4 0.0000 0.0000
08:23 15 13.4 90 61 0.6 1.1 1019.5 0.0000 0.0000
08:32 15.2 13.6 90 24 0.3 1.1 1019.4 0.0000 0.0000
08:43 15.5 13.9 90 338 0.6 1.1 1019.4 0.0000 0.0000
08:53 15.8 14 89 18 0.3 1.1 1019.4 0.0000 0.0000
09:03 15.9 14.1 89 54 0.3 1.1 1019.4 0.0000 0.0000
09:13 16.1 14.1 88 33 0.3 1.1 1019.4 0.0000 0.0000
09:23 16.2 14.2 88 310 0.6 1.4 1019.5 0.0000 0.0000
09:33 16.4 14.2 87 296 0.6 1.4 1019.3 0.0000 0.0000
09:43 16.7 14.5 87 297 0.6 1.4 1019.4 0.0000 0.0000
09:53 16.9 14.5 86 270 0.3 1.1 1019.3 0.0000 0.0000
10:03 17 14.5 85 311 0.8 1.7 1019.4 0.0000 0.0000
10:13 17.3 14.6 84 204 0.6 1.4 1019.3 0.0000 0.0000
10:23 17.8 15.1 84 283 0.8 2.2 1019.1 0.0000 0.0000
10:34 18 14.9 82 270 0.8 1.7 1019.3 0.0000 0.0000
10:43 17.9 14.6 81 294 0.8 1.7 1019.3 0.0000 0.0000
10:53 17.9 14.2 79 270 0.6 1.7 1019.2 0.0000 0.0000
11:04 18 14.3 79 292 0.8 1.9 1019.1 0.0000 0.0000
11:14 18.2 14.5 79 241 0.8 1.7 1019.1 0.0000 0.0000
11:23 18.7 15 79 250 0.8 1.9 1019 0.0000 0.0000
11:33 18.9 14.6 76 291 0.8 1.9 1019 0.0000 0.0000
11:44 18.9 14.6 76 260 0.8 1.4 1019.1 0.0000 0.0000
11:54 19.3 15.2 77 270 0.6 1.4 1019 0.0000 0.0000
12:03 19.9 15.5 76 270 0.8 1.9 1019.1 0.0000 0.0000
12:14 20 15 73 299 0.6 1.4 1019.1 0.0000 0.0000
12:24 20.1 15.1 73 234 0.8 1.7 1019 0.0000 0.0000
12:34 20.4 15.4 73 108 0.6 1.4 1018.8 0.0000 0.0000
12:44 20.8 15.6 72 241 0.8 1.7 1019 0.0000 0.0000
12:54 21.2 15.7 71 306 0.8 1.7 1018.8 0.0000 0.0000
13:04 21.4 15.7 70 288 0.8 1.9 1018.9 0.0000 0.0000
13:14 21.2 15.1 68 233 0.6 1.9 1018.8 0.0000 0.0000
13:24 21.4 15.5 69 237 0.8 1.9 1018.7 0.0000 0.0000
13:34 21.6 15.7 69 283 0.8 2.2 1018.7 0.0000 0.0000
13:44 21.9 16 69 234 0.6 1.4 1018.5 0.0000 0.0000
13:54 22.4 16.2 68 252 0.8 2.2 1018.4 0.0000 0.0000
14:04 22.7 16.3 67 229 0.8 1.9 1018.3 0.0000 0.0000
14:14 22.9 16 65 270 0.8 2.2 1018.2 0.0000 0.0000
14:24 23.1 16.4 66 135 0.8 1.9 1018.1 0.0000 0.0000
14:35 23.4 16 63 203 0.8 1.7 1018 0.0000 0.0000
14:45 23.4 16.2 64 280 1.1 1.9 1018 0.0000 0.0000
14:54 23.2 15.5 62 292 0.6 1.4 1018 0.0000 0.0000
15:04 22.7 15.1 62 75 0.6 1.4 1017.9 0.0000 0.0000
15:15 22.3 14.7 62 270 0.3 1.1 1017.8 0.0000 0.0000
15:25 22 14.4 62 167 0.3 0.8 1017.9 0.0000 0.0000
15:35 21.9 14.5 63 69 0.8 1.7 1017.9 0.0000 0.0000
15:45 21.8 14.7 64 78 0.8 1.9 1017.9 0.0000 0.0000
15:55 21.6 14.5 64 75 0.6 1.4 1017.9 0.0000 0.0000
16:05 21.5 14.4 64 90 0.3 0.8 1017.8 0.0000 0.0000
16:15 21.5 14.4 64 33 0.3 0.8 1017.7 0.0000 0.0000
16:25 21.5 14.4 64 40 0.3 1.1 1017.6 0.0000 0.0000
16:35 21.5 14.4 64 90 0.3 1.1 1017.6 0.0000 0.0000
16:45 21.5 14.2 63 0 0.6 1017.6 0.0000 0.0000
16:56 21.6 13.8 61 270 0.6 1.1 1017.4 0.0000 0.0000
17:06 22.3 14.4 61 304 0.6 1.4 1017.4 0.0000 0.0000
17:15 22.9 14.7 60 45 0.3 1.1 1017.3 0.0000 0.0000
17:25 23.5 14.5 57 315 0.3 1.4 1017.1 0.0000 0.0000
17:36 23.9 14.9 57 90 0.6 1.7 1016.9 0.0000 0.0000
17:46 24.3 14.7 55 71 0.6 1.7 1017 0.0000 0.0000
17:56 24.6 14.7 54 145 0.6 1.4 1016.8 0.0000 0.0000
18:06 24.5 14.6 54 59 0.8 2.5 1016.7 0.0000 0.0000
18:16 24.4 14.5 54 72 0.8 2.5 1016.6 0.0000 0.0000
18:26 24.2 14.3 54 90 0.6 2.2 1016.6 0.0000 0.0000
18:36 24.1 13.9 53 72 0.8 1.7 1016.5 0.0000 0.0000
18:47 23.8 13.4 52 58 0.6 1.7 1016.5 0.0000 0.0000
18:56 23.6 13.5 53 67 0.8 1.7 1016.4 0.0000 0.0000
19:06 23.6 13.5 53 72 0.6 1.7 1016.5 0.0000 0.0000
19:17 23.6 13.5 53 90 0.6 1.4 1016.4 0.0000 0.0000
19:27 23.5 13.7 54 75 0.6 1.7 1016.4 0.0000 0.0000
19:37 23.3 13.5 54 103 0.8 1.7 1016.5 0.0000 0.0000
19:46 23.2 13.9 56 59 0.3 1.1 1016.4 0.0000 0.0000
19:57 23 13.5 55 177 0.3 1.1 1016.3 0.0000 0.0000
20:07 22.8 13.6 56 90 0.3 1.1 1016.3 0.0000 0.0000
20:17 22.6 13.4 56 90 0.3 1.1 1016.1 0.0000 0.0000
20:27 22.5 13.3 56 90 0.3 0.8 1016.2 0.0000 0.0000

DAY STATISTIC

2019-07-17
TEMPERATURE
AVERAGE
17.7
HIGH
24.6
17:56
LOW
11.7
05:41
PRESSURE
AVERAGE
1018.8
HIGH
1020.5
00:00
LOW
1016.1
20:17
DEWPOINT
AVERAGE
13.3
HIGH
16.4
14:24
LOW
9.9
05:32
HUMIDITY
AVERAGE
77
HIGH
91
06:42
LOW
52
18:47
WIND SPEED
AVERAGE
0.4
HIGH
1.1
14:45
WIND GUST
AVERAGE
1.2
HIGH
2.5
18:06
WIND DIRECTION
PREVAILING
E
21.1%
N
4.1
NE
19.5
E
21.1
SE
1.6
S
3.3
SW
5.7
W
14.6
NW
9.8
PRECIPITATION
RAIN HOUR
0.0
RAIN DAY
0.0
TEMPERATURE (°C)
LOW
11.7
HIGH
24.6
AVERAGE
17.7
PRESSURE (hpa)
LOW
1016.1
HIGH
1020.5
AVERAGE
1018.8
DEVICE